Time;durP1;ratioP1;P1;durP2;ratioP2;P2;SDS_P1;SDS_P2;PMS_P1;PMS_P2;Temp;Humidity;BMP_temperature;BMP_pressure;BME280_temperature;BME280_humidity;BME280_pressure;Samples;Min_cycle;Max_cycle;Signal;HPM_P1;HPM_P2
2024/04/15 00:00:19;;;;;;;;;16.75;15.50;;;;;;;;5308031;26;8877;-72
2024/04/15 00:02:45;;;;;;;;;16.00;14.25;;;;;;;;5308064;26;9600;-72
2024/04/15 00:05:10;;;;;;;;;18.00;16.00;;;;;;;;5305497;27;9501;-72
2024/04/15 00:07:35;;;;;;;;;15.75;15.25;;;;;;;;5308272;26;8850;-72
2024/04/15 00:10:01;;;;;;;;;15.00;13.50;;;;;;;;5307619;26;8858;-72
2024/04/15 00:12:26;;;;;;;;;14.50;14.50;;;;;;;;5307485;26;8877;-72
2024/04/15 00:14:52;;;;;;;;;17.00;17.00;;;;;;;;5307277;26;8873;-72
2024/04/15 00:17:17;;;;;;;;;15.25;14.50;;;;;;;;5307582;26;8932;-72
2024/04/15 00:19:42;;;;;;;;;15.25;14.50;;;;;;;;5307537;26;8838;-73
2024/04/15 00:22:08;;;;;;;;;14.25;14.25;;;;;;;;5305643;27;8966;-72
2024/04/15 00:24:33;;;;;;;;;16.25;15.50;;;;;;;;5306979;26;9109;-72
2024/04/15 00:26:59;;;;;;;;;14.25;14.00;;;;;;;;5306932;27;8838;-73
2024/04/15 00:29:24;;;;;;;;;13.75;13.75;;;;;;;;5307566;26;9532;-73
2024/04/15 00:31:49;;;;;;;;;16.25;14.75;;;;;;;;5307469;26;8847;-72
2024/04/15 00:34:15;;;;;;;;;15.00;14.00;;;;;;;;5307471;26;9029;-73
2024/04/15 00:36:42;;;;;;;;;15.75;15.00;;;;;;;;5307373;26;8830;-72
2024/04/15 00:39:08;;;;;;;;;16.50;15.00;;;;;;;;5307387;26;8904;-72
2024/04/15 00:41:33;;;;;;;;;13.50;13.50;;;;;;;;5307343;26;11686;-73
2024/04/15 00:43:58;;;;;;;;;15.00;13.00;;;;;;;;5307615;26;9578;-72
2024/04/15 00:46:23;;;;;;;;;13.50;13.50;;;;;;;;5307167;26;8940;-72
2024/04/15 00:48:49;;;;;;;;;16.25;13.25;;;;;;;;5307070;26;9013;-72
2024/04/15 00:51:16;;;;;;;;;14.50;13.00;;;;;;;;5307169;26;8864;-71
2024/04/15 00:53:42;;;;;;;;;14.75;14.75;;;;;;;;5305437;27;8827;-72
2024/04/15 00:56:08;;;;;;;;;12.25;12.25;;;;;;;;5306821;26;11662;-71
2024/04/15 00:58:33;;;;;;;;;14.00;13.00;;;;;;;;5305024;27;8811;-71
2024/04/15 01:01:00;;;;;;;;;18.25;13.75;;;;;;;;5304933;27;11575;-71
2024/04/15 01:03:26;;;;;;;;;15.00;14.00;;;;;;;;5307202;26;8865;-71
2024/04/15 01:05:52;;;;;;;;;16.50;14.25;;;;;;;;5305415;27;12199;-71
2024/04/15 01:08:17;;;;;;;;;14.50;13.25;;;;;;;;5306815;26;8957;-71
2024/04/15 01:10:43;;;;;;;;;15.75;15.25;;;;;;;;5304955;27;11581;-71
2024/04/15 01:13:08;;;;;;;;;16.75;16.00;;;;;;;;5306786;26;8850;-71
2024/04/15 01:15:34;;;;;;;;;17.25;17.25;;;;;;;;5306748;26;8925;-71
2024/04/15 01:17:59;;;;;;;;;16.25;15.75;;;;;;;;5306907;26;8934;-71
2024/04/15 01:20:24;;;;;;;;;20.00;15.50;;;;;;;;5306391;26;8854;-71
2024/04/15 01:23:10;;;;;;;;;17.75;17.25;;;;;;;;5306872;26;8969;-72
2024/04/15 01:25:35;;;;;;;;;20.00;18.00;;;;;;;;5306859;26;8831;-72
2024/04/15 01:28:01;;;;;;;;;18.25;18.25;;;;;;;;5306530;26;11718;-72
2024/04/15 01:30:26;;;;;;;;;16.50;16.50;;;;;;;;5306737;26;8847;-72
2024/04/15 01:32:51;;;;;;;;;20.25;18.25;;;;;;;;5306624;26;8889;-72
2024/04/15 01:35:19;;;;;;;;;16.50;16.50;;;;;;;;5306861;26;8854;-72
2024/04/15 01:37:45;;;;;;;;;18.75;18.25;;;;;;;;5303851;27;9092;-72
2024/04/15 01:40:10;;;;;;;;;15.50;14.50;;;;;;;;5306891;26;11649;-72
2024/04/15 01:42:35;;;;;;;;;20.00;17.00;;;;;;;;5307259;26;8854;-72
2024/04/15 01:45:01;;;;;;;;;17.00;16.00;;;;;;;;5333591;26;8861;-72
2024/04/15 01:47:26;;;;;;;;;18.25;16.50;;;;;;;;5306913;26;8866;-72
2024/04/15 01:49:51;;;;;;;;;18.50;18.00;;;;;;;;5306380;26;8862;-72
2024/04/15 01:52:16;;;;;;;;;15.75;15.75;;;;;;;;5307011;26;8834;-72
2024/04/15 01:54:43;;;;;;;;;17.00;15.00;;;;;;;;5306817;26;8913;-72
2024/04/15 01:57:08;;;;;;;;;19.25;17.25;;;;;;;;5306689;26;8846;-72
2024/04/15 01:59:34;;;;;;;;;17.50;17.00;;;;;;;;5306415;26;11625;-72
2024/04/15 02:01:59;;;;;;;;;17.00;16.25;;;;;;;;5306339;26;8846;-72
2024/04/15 02:04:24;;;;;;;;;15.50;15.25;;;;;;;;5306794;26;8838;-72
2024/04/15 02:06:49;;;;;;;;;18.00;18.00;;;;;;;;5306465;26;8866;-72
2024/04/15 02:09:15;;;;;;;;;15.50;15.50;;;;;;;;5306270;26;8866;-72
2024/04/15 02:11:40;;;;;;;;;16.00;16.00;;;;;;;;5306495;26;8826;-72
2024/04/15 02:14:06;;;;;;;;;17.50;16.75;;;;;;;;5306809;26;8870;-73
2024/04/15 02:16:31;;;;;;;;;21.00;18.00;;;;;;;;5304079;27;8842;-72
2024/04/15 02:18:56;;;;;;;;;14.75;14.75;;;;;;;;5306196;26;8869;-71
2024/04/15 02:21:22;;;;;;;;;16.50;16.25;;;;;;;;5306036;26;9751;-72
2024/04/15 02:23:47;;;;;;;;;18.75;17.75;;;;;;;;5305629;27;8861;-71
2024/04/15 02:26:12;;;;;;;;;20.50;16.75;;;;;;;;5306202;26;8860;-72
2024/04/15 02:28:38;;;;;;;;;17.00;17.00;;;;;;;;5306154;26;8855;-72
2024/04/15 02:31:03;;;;;;;;;17.00;16.00;;;;;;;;5306018;26;8874;-72
2024/04/15 02:33:28;;;;;;;;;18.50;17.25;;;;;;;;5306480;26;8955;-72
2024/04/15 02:35:53;;;;;;;;;20.25;17.25;;;;;;;;5306220;26;8851;-72
2024/04/15 02:38:19;;;;;;;;;15.00;15.00;;;;;;;;5306184;26;8854;-73
2024/04/15 02:40:44;;;;;;;;;17.25;15.50;;;;;;;;5306125;26;9533;-72
2024/04/15 02:43:10;;;;;;;;;18.75;17.50;;;;;;;;5305538;26;8874;-72
2024/04/15 02:45:35;;;;;;;;;15.75;15.50;;;;;;;;5306071;26;8838;-72
2024/04/15 02:48:00;;;;;;;;;15.00;13.25;;;;;;;;5306543;26;8893;-72
2024/04/15 02:50:26;;;;;;;;;16.50;16.50;;;;;;;;5308972;26;8866;-72
2024/04/15 02:52:51;;;;;;;;;17.00;16.75;;;;;;;;5309318;26;8838;-72
2024/04/15 02:55:16;;;;;;;;;17.25;17.25;;;;;;;;5309180;26;8845;-72
2024/04/15 02:57:42;;;;;;;;;19.00;17.00;;;;;;;;5308569;26;8862;-72
2024/04/15 03:00:07;;;;;;;;;19.75;19.75;;;;;;;;5308829;26;8850;-72
2024/04/15 03:02:32;;;;;;;;;17.25;16.50;;;;;;;;5309119;26;8850;-72
2024/04/15 03:04:58;;;;;;;;;16.50;16.00;;;;;;;;5308657;26;8866;-71
2024/04/15 03:07:23;;;;;;;;;15.00;15.00;;;;;;;;5309231;26;8839;-71
2024/04/15 03:09:51;;;;;;;;;17.00;17.00;;;;;;;;5309118;26;8846;-72
2024/04/15 03:12:17;;;;;;;;;12.00;12.00;;;;;;;;5308760;26;8850;-72
2024/04/15 03:14:42;;;;;;;;;16.00;16.00;;;;;;;;5308666;26;11685;-72
2024/04/15 03:17:07;;;;;;;;;16.50;16.00;;;;;;;;5308541;26;8842;-72
2024/04/15 03:19:32;;;;;;;;;18.25;15.75;;;;;;;;5308647;26;8849;-72
2024/04/15 03:21:58;;;;;;;;;16.50;15.25;;;;;;;;5308500;26;8867;-73
2024/04/15 03:24:23;;;;;;;;;18.25;16.00;;;;;;;;5307896;26;8846;-72
2024/04/15 03:26:48;;;;;;;;;18.00;16.00;;;;;;;;5308006;26;8842;-72
2024/04/15 03:29:14;;;;;;;;;15.25;15.00;;;;;;;;5308340;26;8890;-72
2024/04/15 03:31:39;;;;;;;;;18.00;15.00;;;;;;;;5308630;26;8865;-72
2024/04/15 03:34:04;;;;;;;;;16.50;15.75;;;;;;;;5308646;26;8880;-72
2024/04/15 03:36:29;;;;;;;;;17.25;15.50;;;;;;;;5308437;26;8861;-73
2024/04/15 03:38:55;;;;;;;;;18.00;15.75;;;;;;;;5308033;26;8842;-72
2024/04/15 03:41:20;;;;;;;;;19.50;17.75;;;;;;;;5307973;26;8945;-72
2024/04/15 03:43:45;;;;;;;;;19.25;17.75;;;;;;;;5308329;26;8952;-73
2024/04/15 03:46:11;;;;;;;;;20.25;17.00;;;;;;;;5308885;26;8823;-73
2024/04/15 03:48:36;;;;;;;;;15.75;15.25;;;;;;;;5308417;26;8850;-73
2024/04/15 03:51:01;;;;;;;;;18.50;16.00;;;;;;;;5308257;26;8851;-73
2024/04/15 03:53:27;;;;;;;;;18.25;17.00;;;;;;;;5308786;26;8893;-73
2024/04/15 03:55:52;;;;;;;;;21.00;18.25;;;;;;;;5309747;26;8851;-73
2024/04/15 03:58:18;;;;;;;;;22.00;19.00;;;;;;;;5308271;26;8834;-73
2024/04/15 04:00:43;;;;;;;;;14.50;14.50;;;;;;;;5307382;26;8995;-73
2024/04/15 04:03:08;;;;;;;;;17.50;16.75;;;;;;;;5307634;26;8883;-73
2024/04/15 04:05:33;;;;;;;;;16.50;15.75;;;;;;;;5307234;26;8932;-73
2024/04/15 04:07:58;;;;;;;;;19.00;18.50;;;;;;;;5305808;27;8917;-73
2024/04/15 04:10:24;;;;;;;;;15.75;15.75;;;;;;;;5307364;26;8878;-73
2024/04/15 04:12:50;;;;;;;;;16.25;16.25;;;;;;;;5308160;26;8862;-73
2024/04/15 04:15:15;;;;;;;;;19.75;16.50;;;;;;;;5307526;26;11786;-73
2024/04/15 04:17:40;;;;;;;;;21.00;19.75;;;;;;;;5307718;26;9194;-73
2024/04/15 04:20:06;;;;;;;;;15.75;15.00;;;;;;;;5305877;27;8886;-73
2024/04/15 04:22:31;;;;;;;;;21.00;17.75;;;;;;;;5307569;26;8826;-73
2024/04/15 04:24:57;;;;;;;;;19.50;17.00;;;;;;;;5307764;26;8860;-73
2024/04/15 04:27:22;;;;;;;;;16.00;15.00;;;;;;;;5305088;27;8846;-73
2024/04/15 04:29:47;;;;;;;;;15.00;14.00;;;;;;;;5308148;27;8945;-73
2024/04/15 04:32:13;;;;;;;;;20.00;19.00;;;;;;;;5307755;27;8850;-72
2024/04/15 04:34:38;;;;;;;;;20.50;20.50;;;;;;;;5307967;27;8936;-73
2024/04/15 04:37:03;;;;;;;;;23.00;21.50;;;;;;;;5307220;27;8838;-73
2024/04/15 04:39:29;;;;;;;;;19.75;18.50;;;;;;;;5307557;26;8952;-72
2024/04/15 04:41:54;;;;;;;;;25.25;22.50;;;;;;;;5307391;26;8862;-73
2024/04/15 04:44:19;;;;;;;;;20.00;20.00;;;;;;;;5307547;27;9681;-73
2024/04/15 04:46:44;;;;;;;;;25.00;22.75;;;;;;;;5307549;26;8846;-73
2024/04/15 04:49:10;;;;;;;;;23.50;21.50;;;;;;;;5307938;26;8866;-78
2024/04/15 04:51:36;;;;;;;;;20.25;19.50;;;;;;;;5307544;26;8854;-76
2024/04/15 04:54:01;;;;;;;;;18.50;18.00;;;;;;;;5307270;26;11681;-75
2024/04/15 04:56:27;;;;;;;;;22.50;21.50;;;;;;;;5304988;26;8910;-83
2024/04/15 21:28:43;;;;;;;;;13.75;12.00;;;;;;;;5425739;26;13183;-77
2024/04/15 21:31:08;;;;;;;;;9.25;8.75;;;;;;;;5429529;26;11607;-77
2024/04/15 21:33:34;;;;;;;;;12.75;9.75;;;;;;;;5430032;26;9024;-76
2024/04/15 21:35:59;;;;;;;;;10.25;9.25;;;;;;;;5427588;26;8892;-77
2024/04/15 21:38:24;;;;;;;;;10.50;10.50;;;;;;;;5429785;26;9667;-77
2024/04/15 21:40:49;;;;;;;;;12.25;9.00;;;;;;;;5429247;26;8898;-76
2024/04/15 21:43:15;;;;;;;;;13.00;8.00;;;;;;;;5445244;26;8862;-77
2024/04/15 21:45:40;;;;;;;;;9.00;9.00;;;;;;;;5465737;26;8938;-72
2024/04/15 21:48:06;;;;;;;;;9.25;9.25;;;;;;;;5466645;26;8971;-76
2024/04/15 21:50:31;;;;;;;;;9.50;8.50;;;;;;;;5465915;26;8870;-78
2024/04/15 21:52:57;;;;;;;;;11.25;9.50;;;;;;;;5465615;26;8839;-78
2024/04/15 21:55:23;;;;;;;;;9.75;9.75;;;;;;;;5466100;26;8918;-78
2024/04/15 21:57:48;;;;;;;;;10.75;10.50;;;;;;;;5463775;26;11230;-78
2024/04/15 22:00:13;;;;;;;;;12.25;9.75;;;;;;;;5465686;26;8855;-78
2024/04/15 22:02:39;;;;;;;;;10.00;10.00;;;;;;;;5465232;26;8827;-78
2024/04/15 22:05:04;;;;;;;;;12.00;10.00;;;;;;;;5465463;26;8839;-78
2024/04/15 22:07:29;;;;;;;;;3.50;3.50;;;;;;;;5465264;26;8864;-78
2024/04/15 22:09:55;;;;;;;;;8.75;8.00;;;;;;;;5463113;26;8847;-78
2024/04/15 22:12:20;;;;;;;;;15.25;12.75;;;;;;;;5465061;26;9517;-76
2024/04/15 22:14:45;;;;;;;;;9.75;8.75;;;;;;;;5465507;26;8852;-76
2024/04/15 22:17:10;;;;;;;;;13.25;10.00;;;;;;;;5465161;26;8875;-76
2024/04/15 22:19:35;;;;;;;;;13.75;12.75;;;;;;;;5464807;26;9147;-76
2024/04/15 22:22:01;;;;;;;;;13.50;10.00;;;;;;;;5464863;26;8832;-76
2024/04/15 22:24:26;;;;;;;;;7.75;7.75;;;;;;;;5464778;26;8870;-76
2024/04/15 22:26:51;;;;;;;;;14.25;13.00;;;;;;;;5464931;26;8855;-76
2024/04/15 22:29:17;;;;;;;;;8.00;8.00;;;;;;;;5465306;26;9073;-75
2024/04/15 22:31:42;;;;;;;;;10.00;10.00;;;;;;;;5465172;26;8831;-76
2024/04/15 22:34:07;;;;;;;;;15.50;10.75;;;;;;;;5462579;26;8835;-75
2024/04/15 22:36:32;;;;;;;;;4.50;3.50;;;;;;;;5464348;26;8844;-76
2024/04/15 22:38:58;;;;;;;;;9.00;8.75;;;;;;;;5455732;26;9004;-76
2024/04/15 22:41:23;;;;;;;;;12.00;9.50;;;;;;;;5449209;26;9444;-76
2024/04/15 22:43:50;;;;;;;;;11.75;9.00;;;;;;;;5447085;26;8882;-76
2024/04/15 22:46:15;;;;;;;;;13.00;12.00;;;;;;;;5448989;26;8828;-76
2024/04/15 22:48:40;;;;;;;;;11.50;11.25;;;;;;;;5448873;26;11133;-76
2024/04/15 22:51:05;;;;;;;;;10.75;9.50;;;;;;;;5448719;26;8836;-75
2024/04/15 22:53:30;;;;;;;;;12.75;10.75;;;;;;;;5448722;26;8898;-75
2024/04/15 22:55:56;;;;;;;;;14.00;12.25;;;;;;;;5448932;26;8862;-78
2024/04/15 22:58:21;;;;;;;;;12.75;9.75;;;;;;;;5449116;26;9660;-77
2024/04/15 23:00:47;;;;;;;;;12.00;9.50;;;;;;;;5448665;26;9478;-77
2024/04/15 23:03:12;;;;;;;;;13.25;12.50;;;;;;;;5448998;26;8816;-77
2024/04/15 23:05:37;;;;;;;;;12.75;10.00;;;;;;;;5446958;26;8843;-77
2024/04/15 23:08:02;;;;;;;;;11.50;9.25;;;;;;;;5448808;26;9069;-77
2024/04/15 23:10:28;;;;;;;;;14.00;10.00;;;;;;;;5448833;26;8832;-77
2024/04/15 23:12:53;;;;;;;;;12.50;10.50;;;;;;;;5448616;26;8836;-76
2024/04/15 23:15:18;;;;;;;;;12.25;11.50;;;;;;;;5448654;26;8824;-76
2024/04/15 23:17:43;;;;;;;;;13.50;8.50;;;;;;;;5448753;26;8907;-74
2024/04/15 23:20:09;;;;;;;;;11.75;11.00;;;;;;;;5448851;26;8820;-77
2024/04/15 23:22:34;;;;;;;;;11.00;10.00;;;;;;;;5448739;26;8843;-76
2024/04/15 23:24:59;;;;;;;;;12.00;9.00;;;;;;;;5448125;26;8851;-76
2024/04/15 23:27:24;;;;;;;;;9.00;9.00;;;;;;;;5434816;26;8832;-74
2024/04/15 23:29:49;;;;;;;;;13.25;12.00;;;;;;;;5412259;26;8883;-74
2024/04/15 23:32:15;;;;;;;;;12.00;12.00;;;;;;;;5412373;26;8816;-75
2024/04/15 23:34:40;;;;;;;;;10.25;8.75;;;;;;;;5412241;26;9032;-75
2024/04/15 23:37:05;;;;;;;;;7.00;7.00;;;;;;;;5411200;26;8912;-75
2024/04/15 23:39:30;;;;;;;;;9.00;9.00;;;;;;;;5412121;26;8859;-75
2024/04/15 23:41:56;;;;;;;;;12.00;10.25;;;;;;;;5412011;26;8828;-75
2024/04/15 23:44:21;;;;;;;;;12.75;12.00;;;;;;;;5444158;26;8820;-75
2024/04/15 23:46:46;;;;;;;;;9.25;9.00;;;;;;;;5445500;26;8836;-75
2024/04/15 23:49:11;;;;;;;;;14.00;12.25;;;;;;;;5447785;26;8844;-75
2024/04/15 23:51:37;;;;;;;;;13.00;12.50;;;;;;;;5444365;26;8972;-75
2024/04/15 23:54:02;;;;;;;;;14.00;10.50;;;;;;;;5445741;26;8801;-75
2024/04/15 23:56:27;;;;;;;;;12.75;12.75;;;;;;;;5447730;26;8823;-75
2024/04/15 23:58:52;;;;;;;;;10.50;10.50;;;;;;;;5447573;26;8861;-75
